createdAt,value
2018-07-31T00:01:13.138Z,11.10
2018-07-31T00:03:40.633Z,10.38
2018-07-31T00:06:08.116Z,24.27
2018-07-31T00:08:35.610Z,10.10
2018-07-31T00:11:03.160Z,10.02
2018-07-31T00:13:30.665Z,9.30
2018-07-31T00:15:58.156Z,11.18
2018-07-31T00:18:25.653Z,9.32
2018-07-31T00:20:53.168Z,11.10
2018-07-31T00:23:20.608Z,8.52
2018-07-31T00:25:48.097Z,8.18
2018-07-31T00:28:15.530Z,8.80
2018-07-31T00:30:43.010Z,8.70
2018-07-31T00:33:10.562Z,8.15
2018-07-31T00:35:38.023Z,8.70
2018-07-31T00:38:05.521Z,9.05
2018-07-31T00:40:32.990Z,9.48
2018-07-31T00:43:00.455Z,9.95
2018-07-31T00:45:27.972Z,10.77
2018-07-31T00:47:55.399Z,9.27
2018-07-31T00:50:22.892Z,9.95
2018-07-31T00:52:50.298Z,10.13
2018-07-31T00:55:17.728Z,9.18
2018-07-31T00:57:45.157Z,10.27
2018-07-31T01:00:12.633Z,8.60
2018-07-31T01:02:40.125Z,10.05
2018-07-31T01:05:07.749Z,8.50
2018-07-31T01:07:35.179Z,9.13
2018-07-31T01:10:02.684Z,9.10
2018-07-31T01:12:30.179Z,8.50
2018-07-31T01:14:57.669Z,8.63
2018-07-31T01:17:25.100Z,6.40
2018-07-31T01:19:52.556Z,8.10
2018-07-31T01:22:20.039Z,8.93
2018-07-31T01:24:47.626Z,8.15
2018-07-31T01:27:15.068Z,7.75
2018-07-31T01:29:42.541Z,6.68
2018-07-31T01:32:09.961Z,9.50
2018-07-31T01:34:37.436Z,7.55
2018-07-31T01:37:04.819Z,6.87
2018-07-31T01:39:32.312Z,7.75
2018-07-31T01:41:59.770Z,7.65
2018-07-31T01:44:27.178Z,8.27
2018-07-31T01:46:54.618Z,8.52
2018-07-31T01:49:22.018Z,7.22
2018-07-31T01:51:49.494Z,9.70
2018-07-31T01:54:17.011Z,8.90
2018-07-31T01:56:44.484Z,8.45
2018-07-31T01:59:11.941Z,9.25
2018-07-31T02:01:39.467Z,13.20
2018-07-31T02:04:06.934Z,9.45
2018-07-31T02:06:34.430Z,8.25
2018-07-31T02:09:01.886Z,7.20
2018-07-31T02:11:29.356Z,8.38
2018-07-31T02:13:56.771Z,10.13
2018-07-31T02:16:24.215Z,9.88
2018-07-31T02:18:51.634Z,9.70
2018-07-31T02:21:19.078Z,12.55
2018-07-31T02:23:46.514Z,9.88
2018-07-31T02:26:13.947Z,8.32
2018-07-31T02:28:41.595Z,8.13
2018-07-31T02:31:08.984Z,9.15
2018-07-31T02:33:36.490Z,9.15
2018-07-31T02:36:03.893Z,9.05
2018-07-31T02:38:31.342Z,10.23
2018-07-31T02:40:58.775Z,10.75
2018-07-31T02:43:26.253Z,8.80
2018-07-31T02:45:53.694Z,9.57
2018-07-31T02:48:21.149Z,7.85
2018-07-31T02:50:48.607Z,8.25
2018-07-31T02:53:16.012Z,8.65
2018-07-31T02:55:43.463Z,9.75
2018-07-31T02:58:10.946Z,8.93
2018-07-31T03:00:38.345Z,9.52
2018-07-31T03:03:05.809Z,9.75
2018-07-31T03:05:33.545Z,7.93
2018-07-31T03:08:01.242Z,10.73
2018-07-31T03:10:28.694Z,8.90
2018-07-31T03:12:56.186Z,7.95
2018-07-31T03:15:23.741Z,9.13
2018-07-31T03:17:51.171Z,8.13
2018-07-31T03:20:18.629Z,8.77
2018-07-31T03:22:46.078Z,6.95
2018-07-31T03:25:13.533Z,9.55
2018-07-31T03:27:41.150Z,8.05
2018-07-31T03:30:08.569Z,8.60
2018-07-31T03:32:36.012Z,7.57
2018-07-31T03:35:03.465Z,9.13
2018-07-31T03:37:30.919Z,6.82
2018-07-31T03:39:58.483Z,10.88
2018-07-31T03:42:25.929Z,8.23
2018-07-31T03:44:53.399Z,6.40
2018-07-31T03:47:20.823Z,7.03
2018-07-31T03:49:48.274Z,7.32
2018-07-31T03:52:15.711Z,7.47
2018-07-31T03:54:43.116Z,7.90
2018-07-31T03:57:10.561Z,8.35
2018-07-31T03:59:37.979Z,9.05
2018-07-31T04:02:05.406Z,8.85
2018-07-31T04:04:32.903Z,8.32
2018-07-31T04:07:00.350Z,8.40
2018-07-31T04:09:27.871Z,8.50
2018-07-31T04:11:55.318Z,8.07
2018-07-31T04:14:22.843Z,6.93
2018-07-31T04:16:50.480Z,6.93
2018-07-31T04:19:18.105Z,8.30
2018-07-31T04:21:45.749Z,7.50
2018-07-31T04:24:13.182Z,8.18
2018-07-31T04:26:40.712Z,6.78
2018-07-31T04:29:09.032Z,6.95
2018-07-31T04:31:36.486Z,6.62
2018-07-31T04:34:03.984Z,8.05
2018-07-31T04:36:31.469Z,7.50
2018-07-31T04:38:58.902Z,7.18
2018-07-31T04:41:26.346Z,7.03
2018-07-31T04:43:53.757Z,8.40
2018-07-31T04:46:21.259Z,7.50
2018-07-31T04:48:48.751Z,7.47
2018-07-31T04:51:16.263Z,8.98
2018-07-31T04:53:44.503Z,7.20
2018-07-31T04:56:11.943Z,9.45
2018-07-31T04:58:39.391Z,8.57
2018-07-31T05:01:06.806Z,8.02
2018-07-31T05:03:34.339Z,8.52
2018-07-31T05:06:01.784Z,8.98
2018-07-31T05:08:29.358Z,8.73
2018-07-31T05:10:56.823Z,7.97
2018-07-31T05:13:24.269Z,8.68
2018-07-31T05:15:51.690Z,8.00
2018-07-31T05:18:19.241Z,7.80
2018-07-31T05:20:46.585Z,7.68
2018-07-31T05:23:14.134Z,7.18
2018-07-31T05:25:41.555Z,8.50
2018-07-31T05:28:08.978Z,8.70
2018-07-31T05:30:36.385Z,9.75
2018-07-31T05:33:03.799Z,7.30
2018-07-31T05:35:31.291Z,10.05
2018-07-31T05:37:58.759Z,8.80
2018-07-31T05:40:26.162Z,8.95
2018-07-31T05:42:53.604Z,7.60
2018-07-31T05:45:21.090Z,9.23
2018-07-31T05:47:48.520Z,9.25
2018-07-31T05:50:16.088Z,11.27
2018-07-31T05:52:43.587Z,10.38
2018-07-31T05:55:11.124Z,7.87
2018-07-31T05:57:38.702Z,8.70
2018-07-31T06:00:06.145Z,10.55
2018-07-31T06:02:33.606Z,9.27
2018-07-31T06:05:01.084Z,7.47
2018-07-31T06:07:28.562Z,8.40
2018-07-31T06:09:56.073Z,11.20
2018-07-31T06:12:23.689Z,9.40
2018-07-31T06:14:51.141Z,10.23
2018-07-31T06:17:18.638Z,11.60
2018-07-31T06:19:46.487Z,10.35
2018-07-31T06:22:13.918Z,10.95
2018-07-31T06:24:41.537Z,11.05
2018-07-31T06:27:09.157Z,10.68
2018-07-31T06:29:36.694Z,10.45
2018-07-31T06:32:04.131Z,10.10
2018-07-31T06:34:31.596Z,10.05
2018-07-31T06:36:59.048Z,11.68
2018-07-31T06:39:26.675Z,11.82
2018-07-31T06:41:54.412Z,11.50
2018-07-31T06:44:21.972Z,11.85
2018-07-31T06:46:49.479Z,10.45
2018-07-31T06:49:17.240Z,10.02
2018-07-31T06:51:44.699Z,10.82
2018-07-31T06:54:12.230Z,11.60
2018-07-31T06:56:39.746Z,7.87
2018-07-31T06:59:07.214Z,11.40
2018-07-31T07:01:34.774Z,10.68
2018-07-31T07:04:02.238Z,11.07
2018-07-31T07:06:29.674Z,11.12
2018-07-31T07:08:57.239Z,11.45
2018-07-31T07:11:24.698Z,10.55
2018-07-31T07:13:52.507Z,10.52
2018-07-31T07:16:20.031Z,11.60
2018-07-31T07:18:47.451Z,11.43
2018-07-31T07:21:15.191Z,12.37
2018-07-31T07:23:42.775Z,13.80
2018-07-31T07:26:10.403Z,11.82
2018-07-31T07:28:38.047Z,12.82
2018-07-31T07:31:05.652Z,11.70
2018-07-31T07:33:33.180Z,16.17
2018-07-31T07:36:00.727Z,15.10
2018-07-31T07:38:28.170Z,13.00
2018-07-31T07:40:55.739Z,30.73
2018-07-31T07:43:23.181Z,14.85
2018-07-31T07:45:50.956Z,12.57
2018-07-31T07:48:18.464Z,15.43
2018-07-31T07:50:46.033Z,12.32
2018-07-31T07:53:13.485Z,12.40
2018-07-31T07:55:40.904Z,12.73
2018-07-31T07:58:08.363Z,11.90
2018-07-31T08:00:35.836Z,13.35
2018-07-31T08:03:03.379Z,12.88
2018-07-31T08:05:30.843Z,13.02
2018-07-31T08:07:58.296Z,13.70
2018-07-31T08:10:25.737Z,12.75
2018-07-31T08:12:53.171Z,14.10
2018-07-31T08:15:20.779Z,16.90
2018-07-31T08:17:48.303Z,15.82
2018-07-31T08:20:15.892Z,14.20
2018-07-31T08:22:43.378Z,12.13
2018-07-31T08:25:10.860Z,15.30
2018-07-31T08:27:39.335Z,13.38
2018-07-31T08:30:06.756Z,34.47
2018-07-31T08:32:34.240Z,19.85
2018-07-31T08:35:01.968Z,16.70
2018-07-31T09:16:43.184Z,23.85
2018-07-31T09:28:59.384Z,23.77
2018-07-31T09:31:26.991Z,21.70
2018-07-31T09:33:54.700Z,23.35
2018-07-31T09:36:22.191Z,21.45
2018-07-31T09:38:49.643Z,22.10
2018-07-31T09:41:17.170Z,17.80
2018-07-31T09:43:44.638Z,26.40
2018-07-31T09:46:12.292Z,23.42
2018-07-31T09:48:39.772Z,23.48
2018-07-31T09:51:07.293Z,23.75
2018-07-31T09:56:02.008Z,20.75
2018-07-31T09:58:29.438Z,21.10
2018-07-31T10:00:56.980Z,21.50
2018-07-31T10:03:24.451Z,20.55
2018-07-31T10:05:52.126Z,26.37
2018-07-31T10:08:19.656Z,26.67
2018-07-31T10:10:47.154Z,25.20
2018-07-31T10:13:14.668Z,25.60
2018-07-31T11:09:38.428Z,28.90
2018-07-31T11:14:33.099Z,26.20
2018-07-31T11:17:00.617Z,24.57
2018-07-31T11:24:22.164Z,27.52
2018-07-31T11:43:58.776Z,26.50
2018-07-31T11:48:53.756Z,27.85
2018-07-31T11:51:21.382Z,26.37
2018-07-31T11:53:49.030Z,28.12
2018-07-31T11:56:16.627Z,30.10
2018-07-31T11:58:44.243Z,29.73
2018-07-31T12:01:11.927Z,28.38
2018-07-31T12:03:39.339Z,31.47
2018-07-31T12:06:06.888Z,34.97
2018-07-31T12:08:34.360Z,40.47
2018-07-31T12:11:01.906Z,43.97
2018-07-31T12:13:29.442Z,30.57
2018-07-31T12:15:56.995Z,33.30
2018-07-31T12:18:24.515Z,40.47
2018-07-31T12:20:52.056Z,37.77
2018-07-31T12:23:20.462Z,35.03
2018-07-31T12:25:47.960Z,41.90
2018-07-31T12:28:16.730Z,38.60
2018-07-31T12:30:44.351Z,34.40
2018-07-31T12:33:11.848Z,32.07
2018-07-31T12:35:39.339Z,33.10
2018-07-31T12:38:06.819Z,29.63
2018-07-31T12:40:34.252Z,30.90
2018-07-31T12:43:01.790Z,30.60
2018-07-31T12:45:29.267Z,28.42
2018-07-31T12:47:57.016Z,31.45
2018-07-31T12:50:24.465Z,24.02
2018-07-31T12:52:51.920Z,36.13
2018-07-31T12:55:19.470Z,25.48
2018-07-31T12:57:46.955Z,25.62
2018-07-31T13:00:14.429Z,33.38
2018-07-31T13:02:41.937Z,30.77
2018-07-31T13:05:09.402Z,28.87
2018-07-31T13:07:36.855Z,24.45
2018-07-31T13:10:04.312Z,28.45
2018-07-31T13:12:31.757Z,23.65
2018-07-31T13:14:59.217Z,27.50
2018-07-31T13:17:26.761Z,23.45
2018-07-31T13:19:55.332Z,21.95
2018-07-31T13:22:22.773Z,18.12
2018-07-31T13:24:50.232Z,23.92
2018-07-31T13:27:17.745Z,26.92
2018-07-31T13:29:45.195Z,31.48
2018-07-31T13:32:12.675Z,40.08
2018-07-31T13:34:40.184Z,35.92
2018-07-31T13:37:07.804Z,41.83
2018-07-31T13:39:35.287Z,41.00
2018-07-31T13:42:02.896Z,34.57
2018-07-31T13:44:30.367Z,38.33
2018-07-31T13:46:57.831Z,49.73
2018-07-31T13:49:25.323Z,46.80
2018-07-31T13:51:52.822Z,38.97
2018-07-31T13:54:20.328Z,39.07
2018-07-31T13:56:47.822Z,55.90
2018-07-31T13:59:15.303Z,59.73
2018-07-31T14:01:42.946Z,45.37
2018-07-31T14:04:10.379Z,49.87
2018-07-31T14:06:37.863Z,50.90
2018-07-31T14:09:05.360Z,55.57
2018-07-31T14:11:32.812Z,52.27
2018-07-31T14:14:00.347Z,47.60
2018-07-31T14:16:27.877Z,43.50
2018-07-31T14:18:55.385Z,43.73
2018-07-31T14:21:22.878Z,36.43
2018-07-31T14:23:50.299Z,51.83
2018-07-31T14:26:17.711Z,39.37
2018-07-31T14:28:45.317Z,34.00
2018-07-31T14:31:12.780Z,44.63
2018-07-31T14:33:40.278Z,36.70
2018-07-31T14:36:07.864Z,34.35
2018-07-31T14:38:35.328Z,38.30
2018-07-31T14:41:02.842Z,38.60
2018-07-31T14:43:30.318Z,45.60
2018-07-31T14:45:58.200Z,45.45
2018-07-31T14:48:25.711Z,47.95
2018-07-31T14:50:53.216Z,41.97
2018-07-31T14:53:20.788Z,44.07
2018-07-31T14:55:48.278Z,43.67
2018-07-31T14:58:15.747Z,35.47
2018-07-31T15:00:43.193Z,36.87
2018-07-31T15:03:10.661Z,51.13
2018-07-31T15:05:38.365Z,52.47
2018-07-31T15:08:05.798Z,36.93
2018-07-31T15:10:33.260Z,56.60
2018-07-31T15:13:00.768Z,48.65
2018-07-31T15:15:28.307Z,52.00
2018-07-31T15:17:55.772Z,45.33
2018-07-31T15:20:23.460Z,49.35
2018-07-31T15:22:50.923Z,52.63
2018-07-31T15:25:18.465Z,44.60
2018-07-31T15:27:46.002Z,48.05
2018-07-31T15:30:13.484Z,49.47
2018-07-31T15:32:40.967Z,39.47
2018-07-31T15:35:08.481Z,50.75
2018-07-31T15:37:35.922Z,56.80
2018-07-31T15:40:03.437Z,36.50
2018-07-31T15:42:31.137Z,39.05
2018-07-31T15:44:58.746Z,40.08
2018-07-31T15:47:26.221Z,33.20
2018-07-31T15:49:53.691Z,30.48
2018-07-31T15:52:21.130Z,44.58
2018-07-31T15:54:48.607Z,34.15
2018-07-31T15:57:16.049Z,31.58
2018-07-31T15:59:43.582Z,29.27
2018-07-31T16:02:10.982Z,32.33
2018-07-31T16:04:38.475Z,33.90
2018-07-31T16:07:05.943Z,33.35
2018-07-31T16:09:33.358Z,32.15
2018-07-31T16:12:00.969Z,30.55
2018-07-31T16:14:28.505Z,28.35
2018-07-31T16:16:55.952Z,24.70
2018-07-31T16:19:23.991Z,33.00
2018-07-31T16:21:51.663Z,35.00
2018-07-31T16:24:19.076Z,28.90
2018-07-31T16:26:46.549Z,29.67
2018-07-31T16:29:14.018Z,24.98
2018-07-31T16:31:41.456Z,27.62
2018-07-31T16:34:09.041Z,26.70
2018-07-31T16:36:36.519Z,30.98
2018-07-31T16:39:04.008Z,32.88
2018-07-31T16:41:31.528Z,33.47
2018-07-31T16:43:58.977Z,33.88
2018-07-31T16:46:26.431Z,27.98
2018-07-31T16:48:54.014Z,20.25
2018-07-31T16:51:21.587Z,20.35
2018-07-31T16:53:49.020Z,24.25
2018-07-31T16:56:16.587Z,26.35
2018-07-31T16:58:44.107Z,28.67
2018-07-31T17:01:11.627Z,26.48
2018-07-31T17:03:39.302Z,24.75
2018-07-31T17:06:06.771Z,21.50
2018-07-31T17:08:34.219Z,18.85
2018-07-31T17:11:01.740Z,20.12
2018-07-31T17:13:29.245Z,16.55
2018-07-31T17:15:56.777Z,20.37
2018-07-31T17:18:24.249Z,18.10
2018-07-31T17:20:52.113Z,21.23
2018-07-31T17:23:19.765Z,18.42
2018-07-31T17:25:47.303Z,16.40
2018-07-31T17:30:48.395Z,14.60
2018-07-31T17:33:15.836Z,13.05
2018-07-31T17:35:43.310Z,14.43
2018-07-31T17:38:10.820Z,15.40
2018-07-31T17:40:38.320Z,15.77
2018-07-31T17:43:05.816Z,20.80
2018-07-31T17:45:33.257Z,24.50
2018-07-31T17:48:00.722Z,23.20
2018-07-31T17:50:28.353Z,19.00
2018-07-31T17:52:55.881Z,19.00
2018-07-31T17:55:23.456Z,19.48
2018-07-31T17:57:50.919Z,18.65
2018-07-31T18:00:18.449Z,18.58
2018-07-31T18:02:45.925Z,24.10
2018-07-31T18:05:13.554Z,19.50
2018-07-31T18:07:41.183Z,17.20
2018-07-31T18:10:08.731Z,18.17
2018-07-31T18:12:36.183Z,18.00
2018-07-31T18:15:03.852Z,19.37
2018-07-31T18:17:31.336Z,17.60
2018-07-31T18:19:58.894Z,18.10
2018-07-31T18:22:26.303Z,17.27
2018-07-31T18:24:53.981Z,15.07
2018-07-31T18:27:21.427Z,18.30
2018-07-31T18:29:48.922Z,21.12
2018-07-31T18:32:16.506Z,15.45
2018-07-31T18:34:44.016Z,17.20
2018-07-31T18:37:11.555Z,16.33
2018-07-31T18:44:33.642Z,16.70
2018-07-31T18:47:01.112Z,18.37
2018-07-31T18:49:28.608Z,15.70
2018-07-31T18:51:56.049Z,16.70
2018-07-31T18:54:23.608Z,14.40
2018-07-31T18:59:18.105Z,15.90
2018-07-31T19:01:45.675Z,12.57
2018-07-31T19:04:13.130Z,12.77
2018-07-31T19:06:40.596Z,12.85
2018-07-31T19:09:08.216Z,14.05
2018-07-31T19:11:35.648Z,11.63
2018-07-31T19:14:03.091Z,9.80
2018-07-31T19:16:30.554Z,11.63
2018-07-31T19:18:58.008Z,12.45
2018-07-31T19:21:25.506Z,12.13
2018-07-31T19:23:53.058Z,11.30
2018-07-31T19:26:20.565Z,11.52
2018-07-31T19:28:48.017Z,12.32
2018-07-31T19:31:15.479Z,11.98
2018-07-31T19:33:43.010Z,11.60
2018-07-31T19:36:10.428Z,14.32
2018-07-31T19:38:37.926Z,14.95
2018-07-31T19:41:05.448Z,14.87
2018-07-31T19:43:32.956Z,13.30
2018-07-31T19:46:00.515Z,12.30
2018-07-31T19:48:27.969Z,12.55
2018-07-31T19:50:55.393Z,15.70
2018-07-31T19:53:23.161Z,12.20
2018-07-31T19:55:50.609Z,11.48
2018-07-31T19:58:18.090Z,11.12
2018-07-31T20:00:45.524Z,10.60
2018-07-31T20:03:12.963Z,11.32
2018-07-31T20:05:40.419Z,11.57
2018-07-31T20:08:07.842Z,12.37
2018-07-31T20:10:35.307Z,10.60
2018-07-31T20:13:02.806Z,12.43
2018-07-31T20:15:30.393Z,10.57
2018-07-31T20:17:57.816Z,12.32
2018-07-31T20:20:25.301Z,11.50
2018-07-31T20:22:52.746Z,10.13
2018-07-31T20:25:20.413Z,10.30
2018-07-31T20:27:47.940Z,13.15
2018-07-31T20:30:15.437Z,13.45
2018-07-31T20:32:42.883Z,12.85
2018-07-31T20:35:10.361Z,11.82
2018-07-31T20:37:37.918Z,10.48
2018-07-31T20:40:06.768Z,11.73
2018-07-31T20:42:34.259Z,11.12
2018-07-31T20:45:01.723Z,12.43
2018-07-31T20:47:29.203Z,15.25
2018-07-31T20:49:56.696Z,13.95
2018-07-31T20:52:24.143Z,14.68
2018-07-31T20:54:51.660Z,20.15
2018-07-31T20:57:19.176Z,14.50
2018-07-31T20:59:46.648Z,16.92
2018-07-31T21:02:14.232Z,17.15
2018-07-31T21:04:41.709Z,17.08
2018-07-31T21:07:09.151Z,17.40
2018-07-31T21:09:36.616Z,14.32
2018-07-31T21:12:04.108Z,13.30
2018-07-31T21:14:31.542Z,16.73
2018-07-31T21:16:59.112Z,14.75
2018-07-31T21:19:26.517Z,19.17
2018-07-31T21:21:54.058Z,18.27
2018-07-31T21:24:21.493Z,14.35
2018-07-31T21:26:49.018Z,14.45
2018-07-31T21:29:16.486Z,15.88
2018-07-31T21:31:43.943Z,15.35
2018-07-31T21:34:11.441Z,14.90
2018-07-31T21:36:38.912Z,15.27
2018-07-31T21:39:06.370Z,14.90
2018-07-31T21:41:33.830Z,15.93
2018-07-31T21:44:02.369Z,15.70
2018-07-31T21:46:30.061Z,14.65
2018-07-31T21:48:57.508Z,13.38
2018-07-31T21:51:24.976Z,11.52
2018-07-31T21:53:52.442Z,12.10
2018-07-31T21:56:20.127Z,14.65
2018-07-31T21:58:47.564Z,13.50
2018-07-31T22:01:15.127Z,11.40
2018-07-31T22:03:42.550Z,11.65
2018-07-31T22:06:10.055Z,12.40
2018-07-31T22:08:37.565Z,10.35
2018-07-31T22:11:05.136Z,10.82
2018-07-31T22:13:32.617Z,11.35
2018-07-31T22:16:00.139Z,10.57
2018-07-31T22:18:27.679Z,10.90
2018-07-31T22:20:55.151Z,12.07
2018-07-31T22:23:22.685Z,11.90
2018-07-31T22:25:50.165Z,11.80
2018-07-31T22:28:17.607Z,11.35
2018-07-31T22:30:45.191Z,11.82
2018-07-31T22:33:12.611Z,9.55
2018-07-31T22:35:40.162Z,14.02
2018-07-31T22:38:07.668Z,12.63
2018-07-31T22:40:35.259Z,10.18
2018-07-31T22:43:02.766Z,13.80
2018-07-31T22:45:30.190Z,14.02
2018-07-31T22:47:57.649Z,14.87
2018-07-31T22:50:25.219Z,13.20
2018-07-31T22:52:52.759Z,11.23
2018-07-31T22:55:20.204Z,12.50
2018-07-31T22:57:47.666Z,11.75
2018-07-31T23:00:15.139Z,11.90
2018-07-31T23:02:42.618Z,11.98
2018-07-31T23:05:10.139Z,11.50
2018-07-31T23:07:37.834Z,10.90
2018-07-31T23:10:05.331Z,11.65
2018-07-31T23:12:32.874Z,11.57
2018-07-31T23:15:00.351Z,12.88
2018-07-31T23:17:27.794Z,10.75
2018-07-31T23:19:55.245Z,12.73
2018-07-31T23:22:23.400Z,10.38
2018-07-31T23:24:50.982Z,11.55
2018-07-31T23:27:18.436Z,12.20
2018-07-31T23:29:45.883Z,13.95
2018-07-31T23:32:13.364Z,11.40
2018-07-31T23:34:40.874Z,12.13
2018-07-31T23:37:08.314Z,12.37
2018-07-31T23:39:35.751Z,12.52
2018-07-31T23:42:03.252Z,12.95
2018-07-31T23:44:30.878Z,11.57
2018-07-31T23:46:58.597Z,13.00
2018-07-31T23:49:26.048Z,12.60
2018-07-31T23:51:53.541Z,11.27
2018-07-31T23:54:21.053Z,12.25
2018-07-31T23:56:48.642Z,12.43
2018-07-31T23:59:16.099Z,11.20
